sensor_id;sensor_type;location;lat;lon;timestamp;pressure;altitude;pressure_sealevel;temperature
73734;BMP280;62039;50.000;9.064;2023-12-20T00:01:09;100341.38;;;4.82
73734;BMP280;62039;50.000;9.064;2023-12-20T00:03:36;100338.09;;;4.80
73734;BMP280;62039;50.000;9.064;2023-12-20T00:06:08;100334.69;;;4.80
73734;BMP280;62039;50.000;9.064;2023-12-20T00:08:35;100328.56;;;4.81
73734;BMP280;62039;50.000;9.064;2023-12-20T00:11:02;100334.56;;;4.81
73734;BMP280;62039;50.000;9.064;2023-12-20T00:13:32;100324.22;;;4.81
73734;BMP280;62039;50.000;9.064;2023-12-20T00:15:59;100334.56;;;4.81
73734;BMP280;62039;50.000;9.064;2023-12-20T00:18:26;100327.50;;;4.83
73734;BMP280;62039;50.000;9.064;2023-12-20T00:20:53;100327.50;;;4.83
73734;BMP280;62039;50.000;9.064;2023-12-20T00:23:20;100324.91;;;4.83
73734;BMP280;62039;50.000;9.064;2023-12-20T00:25:47;100325.75;;;4.84
73734;BMP280;62039;50.000;9.064;2023-12-20T00:28:14;100320.44;;;4.85
73734;BMP280;62039;50.000;9.064;2023-12-20T00:30:43;100324.69;;;4.86
73734;BMP280;62039;50.000;9.064;2023-12-20T00:33:10;100317.72;;;4.87
73734;BMP280;62039;50.000;9.064;2023-12-20T00:35:37;100323.72;;;4.87
73734;BMP280;62039;50.000;9.064;2023-12-20T00:38:04;100318.53;;;4.87
73734;BMP280;62039;50.000;9.064;2023-12-20T00:40:31;100311.75;;;4.86
73734;BMP280;62039;50.000;9.064;2023-12-20T00:42:58;100292.66;;;4.87
73734;BMP280;62039;50.000;9.064;2023-12-20T00:45:25;100309.84;;;4.88
73734;BMP280;62039;50.000;9.064;2023-12-20T00:47:55;100314.06;;;4.89
73734;BMP280;62039;50.000;9.064;2023-12-20T00:50:22;100301.13;;;4.89
73734;BMP280;62039;50.000;9.064;2023-12-20T00:52:52;100293.25;;;4.91
73734;BMP280;62039;50.000;9.064;2023-12-20T00:55:19;100294.91;;;4.92
73734;BMP280;62039;50.000;9.064;2023-12-20T00:57:46;100288.63;;;4.94
73734;BMP280;62039;50.000;9.064;2023-12-20T01:00:14;100289.44;;;4.95
73734;BMP280;62039;50.000;9.064;2023-12-20T01:02:41;100290.28;;;4.95
73734;BMP280;62039;50.000;9.064;2023-12-20T01:05:10;100294.41;;;4.98
73734;BMP280;62039;50.000;9.064;2023-12-20T01:07:37;100292.63;;;4.98
73734;BMP280;62039;50.000;9.064;2023-12-20T01:10:05;100288.13;;;5.00
73734;BMP280;62039;50.000;9.064;2023-12-20T01:12:32;100285.41;;;5.02
73734;BMP280;62039;50.000;9.064;2023-12-20T01:14:59;100283.53;;;5.04
73734;BMP280;62039;50.000;9.064;2023-12-20T01:17:26;100288.44;;;5.07
73734;BMP280;62039;50.000;9.064;2023-12-20T01:19:53;100281.50;;;5.07
73734;BMP280;62039;50.000;9.064;2023-12-20T01:22:22;100278.91;;;5.07
73734;BMP280;62039;50.000;9.064;2023-12-20T01:24:49;100278.09;;;5.07
73734;BMP280;62039;50.000;9.064;2023-12-20T01:27:16;100273.06;;;5.05
73734;BMP280;62039;50.000;9.064;2023-12-20T01:29:43;100278.91;;;5.07
73734;BMP280;62039;50.000;9.064;2023-12-20T01:32:10;100275.38;;;5.08
73734;BMP280;62039;50.000;9.064;2023-12-20T01:34:37;100276.22;;;5.09
73734;BMP280;62039;50.000;9.064;2023-12-20T01:37:04;100271.84;;;5.09
73734;BMP280;62039;50.000;9.064;2023-12-20T01:39:33;100262.19;;;5.12
73734;BMP280;62039;50.000;9.064;2023-12-20T01:42:00;100269.16;;;5.11
73734;BMP280;62039;50.000;9.064;2023-12-20T01:44:27;100267.38;;;5.12
73734;BMP280;62039;50.000;9.064;2023-12-20T01:46:54;100272.56;;;5.12
73734;BMP280;62039;50.000;9.064;2023-12-20T01:49:21;100282.00;;;5.13
73734;BMP280;62039;50.000;9.064;2023-12-20T01:51:50;100277.72;;;5.12
73734;BMP280;62039;50.000;9.064;2023-12-20T01:54:17;100280.31;;;5.12
73734;BMP280;62039;50.000;9.064;2023-12-20T01:56:49;100282.91;;;5.12
73734;BMP280;62039;50.000;9.064;2023-12-20T01:59:16;100283.03;;;5.10
73734;BMP280;62039;50.000;9.064;2023-12-20T02:01:44;100279.63;;;5.09
73734;BMP280;62039;50.000;9.064;2023-12-20T02:04:12;100286.56;;;5.09
73734;BMP280;62039;50.000;9.064;2023-12-20T02:06:40;100279.63;;;5.09
73734;BMP280;62039;50.000;9.064;2023-12-20T02:09:07;100275.38;;;5.08
73734;BMP280;62039;50.000;9.064;2023-12-20T02:11:34;100272.78;;;5.08
73734;BMP280;62039;50.000;9.064;2023-12-20T02:14:05;100269.25;;;5.09
73734;BMP280;62039;50.000;9.064;2023-12-20T02:16:32;100277.97;;;5.08
73734;BMP280;62039;50.000;9.064;2023-12-20T02:18:59;100280.56;;;5.08
73734;BMP280;62039;50.000;9.064;2023-12-20T02:21:32;100280.56;;;5.08
73734;BMP280;62039;50.000;9.064;2023-12-20T02:23:58;100280.00;;;5.05
73734;BMP280;62039;50.000;9.064;2023-12-20T02:26:25;100271.41;;;5.04
73734;BMP280;62039;50.000;9.064;2023-12-20T02:28:53;100281.78;;;5.04
73734;BMP280;62039;50.000;9.064;2023-12-20T02:31:20;100279.19;;;5.04
73734;BMP280;62039;50.000;9.064;2023-12-20T02:33:47;100278.34;;;5.04
73734;BMP280;62039;50.000;9.064;2023-12-20T02:36:14;100285.19;;;5.05
73734;BMP280;62039;50.000;9.064;2023-12-20T02:38:44;100285.19;;;5.05
73734;BMP280;62039;50.000;9.064;2023-12-20T02:41:11;100277.41;;;5.05
73734;BMP280;62039;50.000;9.064;2023-12-20T02:43:38;100270.47;;;5.05
73734;BMP280;62039;50.000;9.064;2023-12-20T02:46:05;100270.47;;;5.05
73734;BMP280;62039;50.000;9.064;2023-12-20T02:48:31;100265.16;;;5.07
73734;BMP280;62039;50.000;9.064;2023-12-20T02:50:59;100257.38;;;5.07
73734;BMP280;62039;50.000;9.064;2023-12-20T02:53:26;100263.38;;;5.07
73734;BMP280;62039;50.000;9.064;2023-12-20T02:55:55;100272.78;;;5.08
73734;BMP280;62039;50.000;9.064;2023-12-20T02:58:22;100266.91;;;5.06
73734;BMP280;62039;50.000;9.064;2023-12-20T03:00:49;100285.31;;;5.03
73734;BMP280;62039;50.000;9.064;2023-12-20T03:03:16;100279.28;;;5.03
73734;BMP280;62039;50.000;9.064;2023-12-20T03:05:43;100262.81;;;5.04
73734;BMP280;62039;50.000;9.064;2023-12-20T03:08:11;100272.34;;;5.03
73734;BMP280;62039;50.000;9.064;2023-12-20T03:10:38;100273.19;;;5.04
73734;BMP280;62039;50.000;9.064;2023-12-20T03:13:08;100263.66;;;5.04
73734;BMP280;62039;50.000;9.064;2023-12-20T03:15:35;100268.00;;;5.04
73734;BMP280;62039;50.000;9.064;2023-12-20T03:18:02;100278.34;;;5.04
73734;BMP280;62039;50.000;9.064;2023-12-20T03:20:29;100280.94;;;5.04
73734;BMP280;62039;50.000;9.064;2023-12-20T03:22:56;100275.88;;;5.02
73734;BMP280;62039;50.000;9.064;2023-12-20T03:25:23;100264.69;;;5.02
73734;BMP280;62039;50.000;9.064;2023-12-20T03:27:50;100281.06;;;5.02
73734;BMP280;62039;50.000;9.064;2023-12-20T03:30:20;100276.72;;;5.03
73734;BMP280;62039;50.000;9.064;2023-12-20T03:32:47;100287.88;;;5.03
73734;BMP280;62039;50.000;9.064;2023-12-20T03:35:14;100277.41;;;5.05
73734;BMP280;62039;50.000;9.064;2023-12-20T03:37:41;100277.25;;;5.06
73734;BMP280;62039;50.000;9.064;2023-12-20T03:40:09;100278.78;;;5.09
73734;BMP280;62039;50.000;9.064;2023-12-20T03:42:36;100273.63;;;5.09
73734;BMP280;62039;50.000;9.064;2023-12-20T03:45:04;100280.31;;;5.12
73734;BMP280;62039;50.000;9.064;2023-12-20T03:47:34;100279.41;;;5.13
73734;BMP280;62039;50.000;9.064;2023-12-20T03:50:01;100287.19;;;5.13
73734;BMP280;62039;50.000;9.064;2023-12-20T03:52:31;100287.19;;;5.13
73734;BMP280;62039;50.000;9.064;2023-12-20T03:54:57;100277.66;;;5.13
73734;BMP280;62039;50.000;9.064;2023-12-20T03:57:24;100274.09;;;5.14
73734;BMP280;62039;50.000;9.064;2023-12-20T03:59:51;100275.72;;;5.15
73734;BMP280;62039;50.000;9.064;2023-12-20T04:02:18;100277.38;;;5.16
73734;BMP280;62039;50.000;9.064;2023-12-20T04:04:48;100285.03;;;5.18
73734;BMP280;62039;50.000;9.064;2023-12-20T04:07:15;100285.03;;;5.18
73734;BMP280;62039;50.000;9.064;2023-12-20T04:09:42;100290.91;;;5.20
73734;BMP280;62039;50.000;9.064;2023-12-20T04:12:09;100286.69;;;5.19
73734;BMP280;62039;50.000;9.064;2023-12-20T04:14:36;100289.13;;;5.20
73734;BMP280;62039;50.000;9.064;2023-12-20T04:17:03;100289.94;;;5.21
73734;BMP280;62039;50.000;9.064;2023-12-20T04:19:30;100291.59;;;5.22
73734;BMP280;62039;50.000;9.064;2023-12-20T04:22:00;100289.69;;;5.24
73734;BMP280;62039;50.000;9.064;2023-12-20T04:24:26;100293.34;;;5.21
73734;BMP280;62039;50.000;9.064;2023-12-20T04:26:54;100299.25;;;5.23
73734;BMP280;62039;50.000;9.064;2023-12-20T04:29:21;100303.59;;;5.23
73734;BMP280;62039;50.000;9.064;2023-12-20T04:31:47;100308.78;;;5.23
73734;BMP280;62039;50.000;9.064;2023-12-20T04:34:14;100311.38;;;5.23
73734;BMP280;62039;50.000;9.064;2023-12-20T04:36:41;100315.59;;;5.24
73734;BMP280;62039;50.000;9.064;2023-12-20T04:39:12;100308.66;;;5.24
73734;BMP280;62039;50.000;9.064;2023-12-20T04:41:39;100310.41;;;5.24
73734;BMP280;62039;50.000;9.064;2023-12-20T04:44:06;100315.59;;;5.24
73734;BMP280;62039;50.000;9.064;2023-12-20T04:46:33;100325.03;;;5.25
73734;BMP280;62039;50.000;9.064;2023-12-20T04:49:00;100315.59;;;5.24
73734;BMP280;62039;50.000;9.064;2023-12-20T04:51:27;100312.06;;;5.25
73734;BMP280;62039;50.000;9.064;2023-12-20T04:53:54;100319.03;;;5.24
73734;BMP280;62039;50.000;9.064;2023-12-20T04:56:24;100327.63;;;5.25
73734;BMP280;62039;50.000;9.064;2023-12-20T04:58:51;100336.19;;;5.25
73734;BMP280;62039;50.000;9.064;2023-12-20T05:01:18;100329.25;;;5.26
73734;BMP280;62039;50.000;9.064;2023-12-20T05:03:45;100318.91;;;5.26
73734;BMP280;62039;50.000;9.064;2023-12-20T05:06:11;100325.69;;;5.27
73734;BMP280;62039;50.000;9.064;2023-12-20T05:08:38;100330.88;;;5.27
73734;BMP280;62039;50.000;9.064;2023-12-20T05:11:05;100329.94;;;5.28
73734;BMP280;62039;50.000;9.064;2023-12-20T05:13:35;100327.34;;;5.28
73734;BMP280;62039;50.000;9.064;2023-12-20T05:16:13;100329.09;;;5.27
73734;BMP280;62039;50.000;9.064;2023-12-20T05:18:40;100334.16;;;5.29
73734;BMP280;62039;50.000;9.064;2023-12-20T05:21:07;100335.13;;;5.28
73734;BMP280;62039;50.000;9.064;2023-12-20T05:23:34;100336.06;;;5.27
73734;BMP280;62039;50.000;9.064;2023-12-20T05:26:01;100337.03;;;5.26
73734;BMP280;62039;50.000;9.064;2023-12-20T05:28:28;100340.56;;;5.25
73734;BMP280;62039;50.000;9.064;2023-12-20T05:30:57;100342.31;;;5.24
73734;BMP280;62039;50.000;9.064;2023-12-20T05:33:24;100353.75;;;5.22
73734;BMP280;62039;50.000;9.064;2023-12-20T05:35:52;100362.47;;;5.21
73734;BMP280;62039;50.000;9.064;2023-12-20T05:38:18;100360.84;;;5.20
73734;BMP280;62039;50.000;9.064;2023-12-20T05:40:45;100364.50;;;5.17
73734;BMP280;62039;50.000;9.064;2023-12-20T05:43:12;100368.03;;;5.16
73734;BMP280;62039;50.000;9.064;2023-12-20T05:45:39;100375.91;;;5.15
73734;BMP280;62039;50.000;9.064;2023-12-20T05:48:09;100379.44;;;5.14
73734;BMP280;62039;50.000;9.064;2023-12-20T05:50:36;100383.00;;;5.13
73734;BMP280;62039;50.000;9.064;2023-12-20T05:53:03;100377.19;;;5.09
73734;BMP280;62039;50.000;9.064;2023-12-20T05:55:30;100383.44;;;5.06
73734;BMP280;62039;50.000;9.064;2023-12-20T05:57:57;100386.28;;;5.03
73734;BMP280;62039;50.000;9.064;2023-12-20T06:00:24;100384.75;;;5.01
73734;BMP280;62039;50.000;9.064;2023-12-20T06:02:51;100394.53;;;4.97
73734;BMP280;62039;50.000;9.064;2023-12-20T06:05:20;100399.84;;;4.96
73734;BMP280;62039;50.000;9.064;2023-12-20T06:07:47;100399.94;;;4.94
73734;BMP280;62039;50.000;9.064;2023-12-20T06:10:15;100395.72;;;4.93
73734;BMP280;62039;50.000;9.064;2023-12-20T06:12:42;100404.31;;;4.94
73734;BMP280;62039;50.000;9.064;2023-12-20T06:15:09;100410.31;;;4.94
73734;BMP280;62039;50.000;9.064;2023-12-20T06:17:36;100416.31;;;4.95
73734;BMP280;62039;50.000;9.064;2023-12-20T06:20:04;100424.91;;;4.95
73734;BMP280;62039;50.000;9.064;2023-12-20T06:22:34;100405.13;;;4.94
73734;BMP280;62039;50.000;9.064;2023-12-20T06:25:01;100404.19;;;4.95
73734;BMP280;62039;50.000;9.064;2023-12-20T06:27:28;100409.38;;;4.95
73734;BMP280;62039;50.000;9.064;2023-12-20T06:29:55;100415.25;;;4.97
73734;BMP280;62039;50.000;9.064;2023-12-20T06:32:22;100416.91;;;4.98
73734;BMP280;62039;50.000;9.064;2023-12-20T06:34:49;100423.84;;;4.98
73734;BMP280;62039;50.000;9.064;2023-12-20T06:37:16;100418.56;;;4.99
73734;BMP280;62039;50.000;9.064;2023-12-20T06:39:46;100422.75;;;5.00
73734;BMP280;62039;50.000;9.064;2023-12-20T06:42:13;100429.72;;;5.00
73734;BMP280;62039;50.000;9.064;2023-12-20T06:44:40;100433.13;;;5.00
73734;BMP280;62039;50.000;9.064;2023-12-20T06:47:07;100426.31;;;4.99
73734;BMP280;62039;50.000;9.064;2023-12-20T06:49:34;100435.03;;;4.98
73734;BMP280;62039;50.000;9.064;2023-12-20T06:52:01;100427.13;;;5.00
73734;BMP280;62039;50.000;9.064;2023-12-20T06:54:29;100424.66;;;4.98
73734;BMP280;62039;50.000;9.064;2023-12-20T06:56:58;100429.84;;;4.98
73734;BMP280;62039;50.000;9.064;2023-12-20T06:59:25;100435.97;;;4.97
73734;BMP280;62039;50.000;9.064;2023-12-20T07:01:52;100439.50;;;4.96
73734;BMP280;62039;50.000;9.064;2023-12-20T07:04:19;100430.91;;;4.96
73734;BMP280;62039;50.000;9.064;2023-12-20T07:06:47;100431.00;;;4.94
73734;BMP280;62039;50.000;9.064;2023-12-20T07:09:14;100427.75;;;4.92
73734;BMP280;62039;50.000;9.064;2023-12-20T07:11:41;100431.28;;;4.91
73734;BMP280;62039;50.000;9.064;2023-12-20T07:14:10;100421.03;;;4.90
73734;BMP280;62039;50.000;9.064;2023-12-20T07:16:37;100447.03;;;4.88
73734;BMP280;62039;50.000;9.064;2023-12-20T07:19:04;100437.63;;;4.87
73734;BMP280;62039;50.000;9.064;2023-12-20T07:21:31;100445.53;;;4.86
73734;BMP280;62039;50.000;9.064;2023-12-20T07:23:58;100449.88;;;4.85
73734;BMP280;62039;50.000;9.064;2023-12-20T07:26:25;100444.81;;;4.84
73734;BMP280;62039;50.000;9.064;2023-12-20T07:28:52;100447.50;;;4.82
73734;BMP280;62039;50.000;9.064;2023-12-20T07:31:21;100448.47;;;4.81
73734;BMP280;62039;50.000;9.064;2023-12-20T07:33:48;100450.38;;;4.79
73734;BMP280;62039;50.000;9.064;2023-12-20T07:36:15;100448.72;;;4.78
73734;BMP280;62039;50.000;9.064;2023-12-20T07:38:42;100462.59;;;4.77
73734;BMP280;62039;50.000;9.064;2023-12-20T07:41:09;100466.13;;;4.76
73734;BMP280;62039;50.000;9.064;2023-12-20T07:43:36;100455.75;;;4.76
73734;BMP280;62039;50.000;9.064;2023-12-20T07:46:06;100471.28;;;4.76
73734;BMP280;62039;50.000;9.064;2023-12-20T07:48:36;100467.88;;;4.76
73734;BMP280;62039;50.000;9.064;2023-12-20T07:51:04;100465.41;;;4.74
73734;BMP280;62039;50.000;9.064;2023-12-20T07:53:31;100470.56;;;4.74
73734;BMP280;62039;50.000;9.064;2023-12-20T07:55:58;100472.34;;;4.74
73734;BMP280;62039;50.000;9.064;2023-12-20T07:58:25;100471.50;;;4.73
73734;BMP280;62039;50.000;9.064;2023-12-20T08:01:11;100481.19;;;4.71
73734;BMP280;62039;50.000;9.064;2023-12-20T08:03:41;100480.25;;;4.72
73734;BMP280;62039;50.000;9.064;2023-12-20T08:06:08;100473.41;;;4.71
73734;BMP280;62039;50.000;9.064;2023-12-20T08:08:35;100472.50;;;4.72
73734;BMP280;62039;50.000;9.064;2023-12-20T08:11:02;100480.25;;;4.72
73734;BMP280;62039;50.000;9.064;2023-12-20T08:13:29;100495.78;;;4.72
73734;BMP280;62039;50.000;9.064;2023-12-20T08:15:56;100494.81;;;4.73
73734;BMP280;62039;50.000;9.064;2023-12-20T08:18:23;100489.63;;;4.73
73734;BMP280;62039;50.000;9.064;2023-12-20T08:20:52;100483.78;;;4.71
73734;BMP280;62039;50.000;9.064;2023-12-20T08:23:19;100500.97;;;4.72
73734;BMP280;62039;50.000;9.064;2023-12-20T08:25:47;100497.66;;;4.70
73734;BMP280;62039;50.000;9.064;2023-12-20T08:28:14;100498.59;;;4.69
73734;BMP280;62039;50.000;9.064;2023-12-20T08:30:41;100506.34;;;4.69
73734;BMP280;62039;50.000;9.064;2023-12-20T08:33:08;100500.34;;;4.68
73734;BMP280;62039;50.000;9.064;2023-12-20T08:35:36;100504.69;;;4.68
73734;BMP280;62039;50.000;9.064;2023-12-20T08:38:05;100497.75;;;4.68
73734;BMP280;62039;50.000;9.064;2023-12-20T08:40:32;100507.28;;;4.68
73734;BMP280;62039;50.000;9.064;2023-12-20T08:42:59;100499.53;;;4.68
73734;BMP280;62039;50.000;9.064;2023-12-20T08:45:26;100491.75;;;4.68
73734;BMP280;62039;50.000;9.064;2023-12-20T08:47:53;100490.94;;;4.67
73734;BMP280;62039;50.000;9.064;2023-12-20T08:50:23;100492.69;;;4.67
73734;BMP280;62039;50.000;9.064;2023-12-20T08:52:50;100492.69;;;4.67
73734;BMP280;62039;50.000;9.064;2023-12-20T08:55:20;100486.69;;;4.66
73734;BMP280;62039;50.000;9.064;2023-12-20T08:57:47;100501.44;;;4.66
73734;BMP280;62039;50.000;9.064;2023-12-20T09:00:15;100491.19;;;4.64
73734;BMP280;62039;50.000;9.064;2023-12-20T09:02:42;100488.72;;;4.63
73734;BMP280;62039;50.000;9.064;2023-12-20T09:05:09;100484.47;;;4.62
73734;BMP280;62039;50.000;9.064;2023-12-20T09:07:36;100500.94;;;4.61
73734;BMP280;62039;50.000;9.064;2023-12-20T09:10:04;100500.94;;;4.61
73734;BMP280;62039;50.000;9.064;2023-12-20T09:12:33;100498.34;;;4.61
73734;BMP280;62039;50.000;9.064;2023-12-20T09:15:00;100497.31;;;4.63
73734;BMP280;62039;50.000;9.064;2023-12-20T09:17:27;100492.94;;;4.64
73734;BMP280;62039;50.000;9.064;2023-12-20T09:19:54;100494.59;;;4.65
73734;BMP280;62039;50.000;9.064;2023-12-20T09:22:21;100495.44;;;4.65
73734;BMP280;62039;50.000;9.064;2023-12-20T09:24:48;100504.13;;;4.64
73734;BMP280;62039;50.000;9.064;2023-12-20T09:27:15;100495.53;;;4.64
73734;BMP280;62039;50.000;9.064;2023-12-20T09:29:45;100488.72;;;4.63
73734;BMP280;62039;50.000;9.064;2023-12-20T09:32:12;100492.00;;;4.65
73734;BMP280;62039;50.000;9.064;2023-12-20T09:34:39;100496.25;;;4.66
73734;BMP280;62039;50.000;9.064;2023-12-20T09:37:06;100503.03;;;4.67
73734;BMP280;62039;50.000;9.064;2023-12-20T09:39:33;100505.63;;;4.67
73734;BMP280;62039;50.000;9.064;2023-12-20T09:42:01;100509.06;;;4.67
73734;BMP280;62039;50.000;9.064;2023-12-20T09:44:28;100502.94;;;4.68
73734;BMP280;62039;50.000;9.064;2023-12-20T09:46:58;100503.53;;;4.72
73734;BMP280;62039;50.000;9.064;2023-12-20T09:49:25;100500.69;;;4.75
73734;BMP280;62039;50.000;9.064;2023-12-20T09:51:54;100507.31;;;4.79
73734;BMP280;62039;50.000;9.064;2023-12-20T09:54:22;100500.22;;;4.81
73734;BMP280;62039;50.000;9.064;2023-12-20T09:56:50;100507.88;;;4.83
73734;BMP280;62039;50.000;9.064;2023-12-20T09:59:17;100501.06;;;4.82
73734;BMP280;62039;50.000;9.064;2023-12-20T10:01:44;100503.75;;;4.80
73734;BMP280;62039;50.000;9.064;2023-12-20T10:04:15;100507.88;;;4.83
73734;BMP280;62039;50.000;9.064;2023-12-20T10:06:55;100509.66;;;4.82
73734;BMP280;62039;50.000;9.064;2023-12-20T10:09:23;100505.19;;;4.84
73734;BMP280;62039;50.000;9.064;2023-12-20T10:11:54;100501.66;;;4.85
73734;BMP280;62039;50.000;9.064;2023-12-20T10:14:21;100500.56;;;4.88
73734;BMP280;62039;50.000;9.064;2023-12-20T10:16:48;100494.56;;;4.87
73734;BMP280;62039;50.000;9.064;2023-12-20T10:19:19;100497.97;;;4.88
73734;BMP280;62039;50.000;9.064;2023-12-20T10:21:46;100499.75;;;4.87
73734;BMP280;62039;50.000;9.064;2023-12-20T10:24:17;100498.81;;;4.88
73734;BMP280;62039;50.000;9.064;2023-12-20T10:26:44;100490.09;;;4.89
73734;BMP280;62039;50.000;9.064;2023-12-20T10:29:11;100490.00;;;4.91
73734;BMP280;62039;50.000;9.064;2023-12-20T10:31:38;100491.50;;;4.93
73734;BMP280;62039;50.000;9.064;2023-12-20T10:34:05;100495.75;;;4.94
73734;BMP280;62039;50.000;9.064;2023-12-20T10:36:34;100486.09;;;4.96
73734;BMP280;62039;50.000;9.064;2023-12-20T10:39:02;100472.09;;;4.99
73734;BMP280;62039;50.000;9.064;2023-12-20T10:41:30;100484.78;;;5.02
73734;BMP280;62039;50.000;9.064;2023-12-20T10:43:59;100477.63;;;5.05
73734;BMP280;62039;50.000;9.064;2023-12-20T10:46:26;100466.19;;;5.08
73734;BMP280;62039;50.000;9.064;2023-12-20T10:48:54;100475.47;;;5.10
73734;BMP280;62039;50.000;9.064;2023-12-20T10:51:22;100469.38;;;5.12
73734;BMP280;62039;50.000;9.064;2023-12-20T10:53:52;100458.09;;;5.13
73734;BMP280;62039;50.000;9.064;2023-12-20T10:56:20;100461.38;;;5.15
73734;BMP280;62039;50.000;9.064;2023-12-20T10:58:47;100463.03;;;5.16
73734;BMP280;62039;50.000;9.064;2023-12-20T11:01:16;100464.69;;;5.17
73734;BMP280;62039;50.000;9.064;2023-12-20T11:03:47;100467.16;;;5.18
73734;BMP280;62039;50.000;9.064;2023-12-20T11:06:30;100450.78;;;5.18
73734;BMP280;62039;50.000;9.064;2023-12-20T11:09:08;100445.50;;;5.19
73734;BMP280;62039;50.000;9.064;2023-12-20T11:11:49;100438.28;;;5.23
73734;BMP280;62039;50.000;9.064;2023-12-20T11:14:20;100427.69;;;5.26
73734;BMP280;62039;50.000;9.064;2023-12-20T11:16:49;100428.25;;;5.29
73734;BMP280;62039;50.000;9.064;2023-12-20T11:19:21;100424.72;;;5.30
73734;BMP280;62039;50.000;9.064;2023-12-20T11:21:48;100423.66;;;5.33
73734;BMP280;62039;50.000;9.064;2023-12-20T11:24:21;100425.28;;;5.34
73734;BMP280;62039;50.000;9.064;2023-12-20T11:26:48;100424.34;;;5.35
73734;BMP280;62039;50.000;9.064;2023-12-20T11:29:34;100419.88;;;5.37
73734;BMP280;62039;50.000;9.064;2023-12-20T11:32:02;100428.06;;;5.42
73734;BMP280;62039;50.000;9.064;2023-12-20T11:34:31;100416.38;;;5.47
73734;BMP280;62039;50.000;9.064;2023-12-20T11:37:00;100429.81;;;5.53
73734;BMP280;62039;50.000;9.064;2023-12-20T11:39:31;100416.72;;;5.54
73734;BMP280;62039;50.000;9.064;2023-12-20T11:42:04;100426.72;;;5.59
73734;BMP280;62039;50.000;9.064;2023-12-20T11:44:31;100435.06;;;5.62
73734;BMP280;62039;50.000;9.064;2023-12-20T11:46:58;100424.34;;;5.67
73734;BMP280;62039;50.000;9.064;2023-12-20T11:49:25;100433.38;;;5.72
73734;BMP280;62039;50.000;9.064;2023-12-20T11:51:52;100420.84;;;5.77
73734;BMP280;62039;50.000;9.064;2023-12-20T11:54:19;100420.59;;;5.80
73734;BMP280;62039;50.000;9.064;2023-12-20T11:56:49;100422.94;;;5.83
73734;BMP280;62039;50.000;9.064;2023-12-20T11:59:16;100415.03;;;5.85
73734;BMP280;62039;50.000;9.064;2023-12-20T12:01:49;100413.16;;;5.87
73734;BMP280;62039;50.000;9.064;2023-12-20T12:04:17;100416.28;;;5.91
73734;BMP280;62039;50.000;9.064;2023-12-20T12:06:45;100406.63;;;5.93
73734;BMP280;62039;50.000;9.064;2023-12-20T12:09:12;100405.53;;;5.95
73734;BMP280;62039;50.000;9.064;2023-12-20T12:11:40;100413.88;;;5.99
73734;BMP280;62039;50.000;9.064;2023-12-20T12:14:10;100414.31;;;6.04
73734;BMP280;62039;50.000;9.064;2023-12-20T12:16:37;100412.44;;;6.06
73734;BMP280;62039;50.000;9.064;2023-12-20T12:19:04;100413.25;;;6.06
73734;BMP280;62039;50.000;9.064;2023-12-20T12:21:31;100407.22;;;6.06
73734;BMP280;62039;50.000;9.064;2023-12-20T12:24:09;100397.69;;;6.06
73734;BMP280;62039;50.000;9.064;2023-12-20T12:26:36;100400.41;;;6.05
73734;BMP280;62039;50.000;9.064;2023-12-20T12:29:03;100394.28;;;6.06
73734;BMP280;62039;50.000;9.064;2023-12-20T12:31:32;100406.28;;;6.07
73734;BMP280;62039;50.000;9.064;2023-12-20T12:34:00;100399.59;;;6.04
73734;BMP280;62039;50.000;9.064;2023-12-20T12:36:28;100387.69;;;6.02
73734;BMP280;62039;50.000;9.064;2023-12-20T12:38:56;100393.13;;;5.99
73734;BMP280;62039;50.000;9.064;2023-12-20T12:41:23;100376.88;;;5.97
73734;BMP280;62039;50.000;9.064;2023-12-20T12:43:50;100376.06;;;5.96
73734;BMP280;62039;50.000;9.064;2023-12-20T12:46:17;100369.38;;;5.94
73734;BMP280;62039;50.000;9.064;2023-12-20T12:48:47;100365.97;;;5.93
73734;BMP280;62039;50.000;9.064;2023-12-20T12:51:14;100364.19;;;5.94
73734;BMP280;62039;50.000;9.064;2023-12-20T12:53:41;100358.03;;;5.95
73734;BMP280;62039;50.000;9.064;2023-12-20T12:56:08;100359.66;;;5.96
73734;BMP280;62039;50.000;9.064;2023-12-20T12:58:35;100363.78;;;5.98
73734;BMP280;62039;50.000;9.064;2023-12-20T13:01:02;100359.44;;;5.99
73734;BMP280;62039;50.000;9.064;2023-12-20T13:03:29;100361.06;;;6.00
73734;BMP280;62039;50.000;9.064;2023-12-20T13:05:59;100352.06;;;6.04
73734;BMP280;62039;50.000;9.064;2023-12-20T13:08:27;100343.22;;;6.06
73734;BMP280;62039;50.000;9.064;2023-12-20T13:10:54;100337.75;;;6.09
73734;BMP280;62039;50.000;9.064;2023-12-20T13:13:21;100319.22;;;6.14
73734;BMP280;62039;50.000;9.064;2023-12-20T13:15:48;100319.91;;;6.16
73734;BMP280;62039;50.000;9.064;2023-12-20T13:18:15;100312.00;;;6.17
73734;BMP280;62039;50.000;9.064;2023-12-20T13:20:42;100315.28;;;6.19
73734;BMP280;62039;50.000;9.064;2023-12-20T13:23:11;100314.06;;;6.23
73734;BMP280;62039;50.000;9.064;2023-12-20T13:25:38;100315.56;;;6.26
73734;BMP280;62039;50.000;9.064;2023-12-20T13:28:06;100304.09;;;6.28
73734;BMP280;62039;50.000;9.064;2023-12-20T13:30:33;100303.97;;;6.30
73734;BMP280;62039;50.000;9.064;2023-12-20T13:33:00;100302.78;;;6.34
73734;BMP280;62039;50.000;9.064;2023-12-20T13:35:27;100294.16;;;6.34
73734;BMP280;62039;50.000;9.064;2023-12-20T13:37:54;100290.47;;;6.36
73734;BMP280;62039;50.000;9.064;2023-12-20T13:40:23;100285.19;;;6.38
73734;BMP280;62039;50.000;9.064;2023-12-20T13:42:50;100291.19;;;6.38
73734;BMP280;62039;50.000;9.064;2023-12-20T13:45:18;100280.09;;;6.36
73734;BMP280;62039;50.000;9.064;2023-12-20T13:47:45;100282.81;;;6.35
73734;BMP280;62039;50.000;9.064;2023-12-20T13:50:12;100292.38;;;6.34
73734;BMP280;62039;50.000;9.064;2023-12-20T13:52:39;100291.69;;;6.32
73734;BMP280;62039;50.000;9.064;2023-12-20T13:55:07;100289.34;;;6.29
73734;BMP280;62039;50.000;9.064;2023-12-20T13:57:37;100280.91;;;6.27
73734;BMP280;62039;50.000;9.064;2023-12-20T14:00:20;100285.53;;;6.23
73734;BMP280;62039;50.000;9.064;2023-12-20T14:02:47;100291.66;;;6.22
73734;BMP280;62039;50.000;9.064;2023-12-20T14:05:15;100296.72;;;6.24
73734;BMP280;62039;50.000;9.064;2023-12-20T14:07:42;100307.09;;;6.24
73734;BMP280;62039;50.000;9.064;2023-12-20T14:10:10;100300.84;;;6.26
73734;BMP280;62039;50.000;9.064;2023-12-20T14:12:40;100291.28;;;6.27